Time;durP1;ratioP1;P1;durP2;ratioP2;P2;SDS_P1;SDS_P2;PMS_P1;PMS_P2;Temp;Humidity;BMP_temperature;BMP_pressure;BME280_temperature;BME280_humidity;BME280_pressure;Samples;Min_cycle;Max_cycle;Signal;HPM_P1;HPM_P2
2023/12/06 00:02:04;;;;;;;33.72;20.65;;;;;;;3.62;75.08;98993.13;5011643;28;20046;-74
2023/12/06 00:04:31;;;;;;;35.05;22.02;;;;;;;3.62;74.90;98996.59;5011083;28;20438;-74
2023/12/06 00:06:58;;;;;;;37.03;21.85;;;;;;;3.62;75.08;99000.94;5024260;28;20081;-74
2023/12/06 00:09:25;;;;;;;35.17;21.65;;;;;;;3.61;74.84;98994.03;5030940;28;20057;-75
2023/12/06 00:11:52;;;;;;;34.08;20.35;;;;;;;3.60;74.78;98992.34;5030830;28;20057;-74
2023/12/06 00:14:18;;;;;;;37.70;22.52;;;;;;;3.59;74.88;99001.06;5030958;28;20092;-75
2023/12/06 00:16:45;;;;;;;34.88;21.13;;;;;;;3.57;74.96;99001.13;5022277;28;20050;-74
2023/12/06 00:19:11;;;;;;;36.92;21.40;;;;;;;3.56;74.72;98995.97;5011276;28;20077;-74
2023/12/06 00:21:38;;;;;;;34.35;20.73;;;;;;;3.54;74.65;98995.22;5011266;28;20052;-74
2023/12/06 00:24:05;;;;;;;36.83;20.77;;;;;;;3.52;74.68;98996.09;5011229;28;20058;-74
2023/12/06 00:26:32;;;;;;;35.63;19.65;;;;;;;3.51;74.79;98994.41;5014325;28;20045;-74
2023/12/06 00:28:58;;;;;;;36.55;20.52;;;;;;;3.50;74.98;99002.28;5015582;28;20081;-74
2023/12/06 00:31:25;;;;;;;34.22;20.95;;;;;;;3.49;75.07;99006.66;5011173;28;20115;-74
2023/12/06 00:33:51;;;;;;;37.17;22.02;;;;;;;3.50;74.83;99004.88;4993570;28;20054;-74
2023/12/06 00:36:18;;;;;;;37.40;21.25;;;;;;;3.50;75.23;99002.28;5010816;28;20537;-74
2023/12/06 00:38:45;;;;;;;38.75;22.45;;;;;;;3.49;75.14;99003.19;5019105;28;20057;-74
2023/12/06 00:41:12;;;;;;;43.00;23.45;;;;;;;3.49;74.87;99005.78;5010725;28;20050;-74
2023/12/06 00:43:39;;;;;;;38.72;21.15;;;;;;;3.48;75.00;99004.94;5011016;28;20057;-74
2023/12/06 00:46:05;;;;;;;41.92;23.20;;;;;;;3.47;75.24;99003.25;5010874;28;20801;-74
2023/12/06 00:48:32;;;;;;;39.83;21.98;;;;;;;3.48;74.74;99011.91;5023581;28;20111;-74
2023/12/06 00:51:01;;;;;;;37.50;21.13;;;;;;;3.46;75.24;99008.50;5030508;28;20452;-74
2023/12/06 00:53:29;;;;;;;39.22;22.40;;;;;;;3.47;75.37;99023.22;5032092;28;20049;-74
2023/12/06 00:55:55;;;;;;;39.28;22.80;;;;;;;3.45;75.20;99014.63;5033915;28;20045;-74
2023/12/06 00:58:22;;;;;;;37.08;21.90;;;;;;;3.45;75.10;99023.28;5025184;28;20062;-74
2023/12/06 01:00:49;;;;;;;37.03;20.88;;;;;;;3.46;75.44;99021.53;5034160;28;20059;-74
2023/12/06 01:03:15;;;;;;;40.22;20.90;;;;;;;3.47;75.06;99016.25;5034143;28;20046;-74
2023/12/06 01:05:42;;;;;;;39.95;21.75;;;;;;;3.47;74.98;99026.66;5033865;28;20049;-74
2023/12/06 01:08:09;;;;;;;36.20;20.38;;;;;;;3.47;75.10;99024.06;5027721;28;20046;-74
2023/12/06 01:10:35;;;;;;;37.38;21.23;;;;;;;3.48;75.21;99033.56;5030807;28;20057;-75
2023/12/06 01:13:02;;;;;;;37.97;21.10;;;;;;;3.48;75.09;99037.94;5034017;28;20115;-74
2023/12/06 01:15:28;;;;;;;39.97;22.17;;;;;;;3.47;74.82;99037.06;5033853;28;20099;-74
2023/12/06 01:17:55;;;;;;;41.72;21.35;;;;;;;3.47;74.89;99039.69;5032448;28;20053;-74
2023/12/06 01:20:22;;;;;;;37.88;21.80;;;;;;;3.47;75.10;99036.22;5013975;28;20501;-74
2023/12/06 01:22:50;;;;;;;39.20;21.25;;;;;;;3.47;75.48;99044.88;5013868;28;20053;-74
2023/12/06 01:25:16;;;;;;;39.38;21.30;;;;;;;3.47;75.39;99047.47;5013862;28;20050;-75
2023/12/06 01:27:43;;;;;;;35.08;20.25;;;;;;;3.47;75.53;99050.09;5004538;28;20049;-75
2023/12/06 01:30:10;;;;;;;34.72;19.40;;;;;;;3.48;74.88;99051.78;5033659;28;20045;-74
2023/12/06 01:32:39;;;;;;;32.72;19.02;;;;;;;3.48;74.94;99049.16;5033609;28;20437;-74
2023/12/06 01:35:07;;;;;;;31.55;18.13;;;;;;;3.47;74.65;99055.28;5033281;28;20053;-74
2023/12/06 01:37:33;;;;;;;34.97;18.73;;;;;;;3.45;75.07;99057.13;5032672;28;20481;-74
2023/12/06 01:40:00;;;;;;;37.42;20.17;;;;;;;3.44;75.13;99058.00;5033453;28;20042;-74
2023/12/06 01:42:27;;;;;;;37.30;20.55;;;;;;;3.44;75.06;99058.00;5033388;28;20139;-74
2023/12/06 01:44:54;;;;;;;42.97;23.02;;;;;;;3.44;75.18;99052.78;5033360;28;20049;-73
2023/12/06 01:47:23;;;;;;;45.78;23.67;;;;;;;3.44;75.33;99063.19;5032601;28;20050;-74
2023/12/06 01:49:51;;;;;;;42.60;23.20;;;;;;;3.44;75.37;99060.59;5013292;28;20045;-74
2023/12/06 01:52:18;;;;;;;41.35;22.42;;;;;;;3.46;75.41;99076.16;5013589;28;20058;-74
2023/12/06 01:54:45;;;;;;;43.53;23.88;;;;;;;3.45;75.40;99072.72;5013261;28;20053;-74
2023/12/06 01:57:11;;;;;;;49.95;24.70;;;;;;;3.46;75.36;99074.41;5013268;28;20060;-74
2023/12/06 01:59:40;;;;;;;47.35;24.75;;;;;;;3.46;75.34;99078.75;5017839;28;20054;-75
2023/12/06 02:02:07;;;;;;;53.85;26.60;;;;;;;3.47;75.13;99078.72;5015981;28;20049;-74
2023/12/06 02:04:33;;;;;;;52.00;26.60;;;;;;;3.48;75.39;99077.78;5031946;28;20556;-74
2023/12/06 02:07:00;;;;;;;56.38;26.73;;;;;;;3.48;74.99;99076.97;5033068;28;20049;-74
2023/12/06 02:09:28;;;;;;;52.08;25.45;;;;;;;3.46;74.65;99079.63;5031333;28;20046;-74
2023/12/06 02:11:55;;;;;;;57.90;28.63;;;;;;;3.46;74.88;99087.44;5032876;28;20057;-75
2023/12/06 02:14:21;;;;;;;58.95;28.42;;;;;;;3.44;74.70;99089.22;5032582;28;20049;-74
2023/12/06 02:16:49;;;;;;;61.28;29.05;;;;;;;3.43;74.80;99084.09;5032688;28;20053;-74
2023/12/06 02:19:27;;;;;;;69.40;29.08;;;;;;;3.39;74.65;99083.34;5031704;28;20490;-74
2023/12/06 02:21:55;;;;;;;60.95;29.10;;;;;;;3.38;74.85;99085.13;5032848;28;20049;-74
2023/12/06 02:24:25;;;;;;;59.80;28.02;;;;;;;3.34;74.74;99090.50;5032465;28;20057;-75
2023/12/06 02:26:54;;;;;;;61.13;27.75;;;;;;;3.34;74.95;99086.16;5032520;28;20053;-74
2023/12/06 02:29:22;;;;;;;61.75;27.52;;;;;;;3.33;74.99;99094.84;5027174;28;20604;-74
2023/12/06 02:31:51;;;;;;;74.93;30.58;;;;;;;3.32;75.06;99093.16;5029053;28;20045;-74
2023/12/06 02:34:24;;;;;;;71.63;31.10;;;;;;;3.31;75.34;99099.25;5032371;28;20108;-75
2023/12/06 02:36:53;;;;;;;67.72;31.98;;;;;;;3.31;75.20;99095.81;5014922;28;20052;-74
2023/12/06 02:39:20;;;;;;;63.25;28.45;;;;;;;3.32;75.36;99105.31;5030224;28;20057;-74
2023/12/06 02:41:47;;;;;;;62.95;29.90;;;;;;;3.31;75.18;99107.06;5060971;22;20521;-78
2023/12/06 02:44:14;;;;;;;68.40;30.52;;;;;;;3.30;75.53;99101.91;5031723;28;20485;-77
2023/12/06 02:46:41;;;;;;;64.55;30.45;;;;;;;3.29;75.56;99098.47;5031642;28;20072;-80
2023/12/06 02:49:07;;;;;;;60.45;30.25;;;;;;;3.29;75.26;99097.63;5031708;28;20060;-78
2023/12/06 02:51:34;;;;;;;61.22;28.88;;;;;;;3.29;75.58;99108.03;5031670;28;20061;-76
2023/12/06 02:54:00;;;;;;;64.22;30.25;;;;;;;3.28;75.63;99106.34;5013999;28;20140;-78
2023/12/06 02:56:27;;;;;;;59.17;28.45;;;;;;;3.28;75.10;99108.94;5031324;28;20135;-78
2023/12/06 02:58:53;;;;;;;54.08;27.38;;;;;;;3.29;75.39;99108.88;5031383;28;20045;-78
2023/12/06 03:01:20;;;;;;;60.42;28.55;;;;;;;3.29;75.46;99108.03;5031510;28;20139;-78
2023/12/06 03:03:46;;;;;;;63.45;29.60;;;;;;;3.28;75.14;99108.94;5031389;28;20633;-80
2023/12/06 03:06:13;;;;;;;52.58;26.67;;;;;;;3.27;75.50;99121.09;5031209;28;20111;-78
2023/12/06 03:08:40;;;;;;;54.05;26.65;;;;;;;3.26;75.18;99109.81;5031127;28;20048;-78
2023/12/06 03:11:06;;;;;;;56.50;28.02;;;;;;;3.25;75.08;99112.47;5031088;28;20089;-79
2023/12/06 03:13:33;;;;;;;52.75;26.55;;;;;;;3.24;75.11;99103.84;5030871;28;20057;-80
2023/12/06 03:15:59;;;;;;;57.40;27.90;;;;;;;3.23;75.52;99107.38;5030912;28;20092;-77
2023/12/06 03:18:26;;;;;;;57.90;28.88;;;;;;;3.22;75.40;99110.84;5031070;28;20041;-79
2023/12/06 03:20:53;;;;;;;56.90;27.50;;;;;;;3.21;75.65;99111.75;5030957;28;20045;-77
2023/12/06 03:23:20;;;;;;;50.95;27.08;;;;;;;3.20;75.26;99111.81;5030838;28;20052;-78
2023/12/06 03:25:46;;;;;;;52.97;27.38;;;;;;;3.20;75.65;99110.06;5030596;28;20045;-78
2023/12/06 03:28:13;;;;;;;51.60;26.90;;;;;;;3.19;75.92;99116.19;5030698;28;20054;-78
2023/12/06 03:30:40;;;;;;;54.10;26.67;;;;;;;3.20;75.57;99114.41;5030737;28;20132;-77
2023/12/06 03:33:06;;;;;;;52.35;26.73;;;;;;;3.20;75.93;99115.28;5013278;28;20401;-78
2023/12/06 03:35:33;;;;;;;50.03;26.17;;;;;;;3.23;75.73;99115.16;5030713;28;20142;-78
2023/12/06 03:38:00;;;;;;;53.95;25.77;;;;;;;3.24;75.76;99119.47;5013083;28;20057;-77
2023/12/06 03:40:26;;;;;;;54.22;26.77;;;;;;;3.27;75.82;99121.09;5030573;28;20096;-77
2023/12/06 03:42:53;;;;;;;48.17;26.40;;;;;;;3.30;75.68;99125.31;5012827;28;20084;-78
2023/12/06 03:45:21;;;;;;;51.10;26.98;;;;;;;3.32;75.75;99118.34;4996797;28;20080;-76
2023/12/06 03:47:48;;;;;;;51.55;25.90;;;;;;;3.34;75.96;99119.09;5030718;28;20084;-78
2023/12/06 03:50:15;;;;;;;48.47;25.63;;;;;;;3.35;76.03;99115.59;5030455;28;20050;-77
2023/12/06 03:52:41;;;;;;;46.63;25.30;;;;;;;3.37;75.74;99122.44;5030464;28;20042;-78
2023/12/06 03:55:08;;;;;;;41.88;22.50;;;;;;;3.39;75.58;99109.38;5030267;28;20123;-77
2023/12/06 03:57:34;;;;;;;41.00;22.08;;;;;;;3.39;75.32;99115.44;5030750;28;20059;-77
2023/12/06 04:00:01;;;;;;;41.47;22.70;;;;;;;3.41;75.69;99123.19;5029857;28;20486;-77
2023/12/06 04:02:28;;;;;;;41.38;23.38;;;;;;;3.41;75.50;99128.38;5030614;28;20071;-79
2023/12/06 04:04:56;;;;;;;42.17;24.00;;;;;;;3.41;74.97;99122.31;5030421;28;20049;-78
2023/12/06 04:07:23;;;;;;;43.55;24.65;;;;;;;3.39;74.91;99128.44;5012802;28;20414;-77
2023/12/06 04:09:51;;;;;;;42.45;23.42;;;;;;;3.38;74.92;99126.75;5030498;28;20054;-77
2023/12/06 04:12:17;;;;;;;40.25;23.00;;;;;;;3.38;75.06;99134.56;5030387;28;20050;-81
2023/12/06 04:14:44;;;;;;;42.45;24.50;;;;;;;3.38;75.33;99129.34;5030414;28;20049;-81
2023/12/06 04:17:11;;;;;;;41.80;23.42;;;;;;;3.37;75.37;99132.00;5012821;28;20179;-80
2023/12/06 04:19:41;;;;;;;45.90;25.48;;;;;;;3.38;75.19;99131.94;5012785;28;20041;-81
2023/12/06 04:22:07;;;;;;;43.05;23.58;;;;;;;3.39;75.43;99140.59;5030326;28;20140;-80
2023/12/06 04:24:37;;;;;;;47.80;25.42;;;;;;;3.38;74.86;99144.09;5030383;28;20053;-81
2023/12/06 04:27:04;;;;;;;48.88;27.63;;;;;;;3.39;75.35;99136.25;5030289;28;20050;-77
2023/12/06 04:29:31;;;;;;;50.42;27.80;;;;;;;3.38;75.03;99144.97;5033527;28;20708;-82
2023/12/06 04:31:58;;;;;;;50.60;27.85;;;;;;;3.39;75.12;99145.78;5034230;28;20049;-81
2023/12/06 04:34:24;;;;;;;52.55;28.75;;;;;;;3.38;74.96;99155.38;5016205;28;20049;-80
2023/12/06 04:36:54;;;;;;;55.45;29.92;;;;;;;3.37;74.64;99158.84;5034253;28;20509;-80
2023/12/06 04:39:21;;;;;;;55.17;29.73;;;;;;;3.35;74.75;99160.69;5034220;28;20442;-83
2023/12/06 04:41:48;;;;;;;50.20;29.17;;;;;;;3.34;74.58;99161.59;5016349;28;20049;-80
2023/12/06 04:44:14;;;;;;;54.05;29.83;;;;;;;3.33;74.73;99156.44;5033860;28;20115;-79
2023/12/06 04:46:41;;;;;;;52.53;29.15;;;;;;;3.31;74.93;99153.88;5016129;28;20057;-81
2023/12/06 04:49:08;;;;;;;60.08;31.35;;;;;;;3.30;74.70;99157.41;5033674;28;20107;-81
2023/12/06 04:51:34;;;;;;;54.75;30.75;;;;;;;3.30;74.92;99157.41;5016424;28;20049;-80
2023/12/06 04:54:01;;;;;;;52.90;29.55;;;;;;;3.29;74.74;99157.44;5033994;28;20089;-81
2023/12/06 04:56:28;;;;;;;55.13;29.50;;;;;;;3.28;74.90;99166.16;5033574;28;20050;-80
2023/12/06 04:58:54;;;;;;;49.88;29.15;;;;;;;3.26;75.14;99172.25;5015817;28;20538;-80
2023/12/06 05:01:21;;;;;;;51.83;29.02;;;;;;;3.25;74.93;99169.69;5033351;28;20156;-80
2023/12/06 05:03:48;;;;;;;58.25;30.65;;;;;;;3.25;75.24;99180.09;5033663;28;20588;-80
2023/12/06 05:06:15;;;;;;;54.08;29.38;;;;;;;3.26;75.29;99172.25;5033159;28;20100;-81
2023/12/06 05:08:42;;;;;;;55.28;31.05;;;;;;;3.25;75.22;99180.09;5015956;28;20045;-80
2023/12/06 05:11:08;;;;;;;56.75;30.90;;;;;;;3.24;75.06;99184.47;5033505;28;20075;-81
2023/12/06 05:13:35;;;;;;;53.97;30.77;;;;;;;3.23;75.05;99179.31;5033436;28;20107;-80
2023/12/06 05:16:03;;;;;;;59.88;31.35;;;;;;;3.22;75.31;99183.66;5033125;28;20053;-79
2023/12/06 05:18:30;;;;;;;59.55;32.42;;;;;;;3.21;75.29;99181.97;5033547;28;20041;-79
2023/12/06 05:20:56;;;;;;;58.22;31.52;;;;;;;3.22;75.24;99185.44;5015765;28;20041;-81
2023/12/06 05:23:23;;;;;;;56.38;31.40;;;;;;;3.22;75.48;99183.66;5033239;28;20860;-81
2023/12/06 05:25:51;;;;;;;59.90;32.78;;;;;;;3.21;75.24;99195.00;5033059;28;20053;-76
2023/12/06 05:28:17;;;;;;;56.03;31.95;;;;;;;3.23;75.03;99193.19;5015465;28;20049;-79
2023/12/06 05:30:44;;;;;;;56.40;32.17;;;;;;;3.23;75.06;99200.13;5032955;28;20049;-80
2023/12/06 05:33:11;;;;;;;61.03;34.13;;;;;;;3.23;75.04;99203.59;5032965;28;20490;-79
2023/12/06 05:35:38;;;;;;;59.00;33.80;;;;;;;3.22;75.26;99201.88;5032964;28;20765;-79
2023/12/06 05:38:04;;;;;;;57.72;32.63;;;;;;;3.24;75.04;99212.22;5032881;28;20537;-79
2023/12/06 05:40:33;;;;;;;64.35;35.17;;;;;;;3.22;74.79;99211.44;5031750;28;20059;-79
2023/12/06 05:43:00;;;;;;;59.03;33.70;;;;;;;3.22;75.09;99209.69;5032794;28;20530;-79
2023/12/06 05:45:27;;;;;;;58.30;32.28;;;;;;;3.22;75.48;99217.47;5032572;28;20132;-79
2023/12/06 05:47:54;;;;;;;61.60;33.88;;;;;;;3.23;75.34;99214.00;5015370;28;20049;-77
2023/12/06 05:50:21;;;;;;;66.60;35.95;;;;;;;3.23;75.47;99214.00;5032793;28;20049;-77
2023/12/06 05:52:49;;;;;;;61.78;33.58;;;;;;;3.23;75.40;99216.59;5032655;28;20049;-77
2023/12/06 05:55:16;;;;;;;64.72;34.88;;;;;;;3.24;75.39;99215.69;5032609;28;20057;-77
2023/12/06 05:57:43;;;;;;;62.85;34.35;;;;;;;3.25;75.60;99217.38;5032675;28;20414;-77
2023/12/06 06:00:12;;;;;;;60.08;33.60;;;;;;;3.26;75.76;99218.25;5032425;28;20482;-78
2023/12/06 06:02:41;;;;;;;63.95;34.95;;;;;;;3.28;75.43;99224.22;5032723;28;20099;-77
2023/12/06 06:05:10;;;;;;;61.53;32.92;;;;;;;3.31;75.51;99228.47;5032582;28;20060;-76
2023/12/06 06:07:37;;;;;;;59.50;34.05;;;;;;;3.32;75.81;99227.59;5032439;28;20077;-77
2023/12/06 06:10:05;;;;;;;64.75;34.63;;;;;;;3.32;75.17;99232.78;5032272;28;20144;-77
2023/12/06 06:12:31;;;;;;;62.90;34.00;;;;;;;3.33;75.41;99230.09;5032219;28;20060;-77
2023/12/06 06:14:58;;;;;;;61.13;33.50;;;;;;;3.33;75.43;99232.72;5032380;28;20042;-77
2023/12/06 06:17:25;;;;;;;65.25;35.45;;;;;;;3.35;75.43;99237.88;5032597;28;20431;-77
2023/12/06 06:19:52;;;;;;;67.40;35.63;;;;;;;3.35;75.74;99238.72;5032235;28;20100;-77
2023/12/06 06:22:18;;;;;;;67.22;34.40;;;;;;;3.37;75.21;99246.47;5032300;28;20081;-77
2023/12/06 06:24:45;;;;;;;66.63;34.95;;;;;;;3.37;75.39;99241.28;5032165;28;20441;-77
2023/12/06 06:27:12;;;;;;;62.75;33.10;;;;;;;3.37;75.52;99238.69;5032121;28;20080;-78
2023/12/06 06:29:39;;;;;;;61.50;33.78;;;;;;;3.37;75.63;99242.09;5032078;28;20085;-77
2023/12/06 06:32:06;;;;;;;59.63;33.15;;;;;;;3.39;75.88;99244.66;5032154;28;20049;-77
2023/12/06 06:34:33;;;;;;;66.07;34.85;;;;;;;3.40;75.58;99248.94;5031830;28;20053;-76
2023/12/06 06:36:59;;;;;;;63.78;33.95;;;;;;;3.41;75.50;99250.66;5031847;28;20510;-77
2023/12/06 06:39:28;;;;;;;61.55;33.15;;;;;;;3.43;75.44;99251.44;5014171;28;20445;-77
2023/12/06 06:41:54;;;;;;;60.70;33.78;;;;;;;3.44;75.95;99263.56;5031616;28;20482;-77
2023/12/06 06:44:21;;;;;;;57.72;31.55;;;;;;;3.44;75.68;99258.34;5031804;28;20107;-77
2023/12/06 06:46:48;;;;;;;62.90;34.17;;;;;;;3.45;75.75;99259.22;5014174;28;20057;-77
2023/12/06 06:49:15;;;;;;;57.60;32.22;;;;;;;3.45;75.93;99262.66;5031592;28;20145;-77
2023/12/06 06:51:41;;;;;;;58.05;31.95;;;;;;;3.45;75.49;99252.25;5031345;28;20505;-77
2023/12/06 06:54:08;;;;;;;62.38;33.45;;;;;;;3.46;75.75;99256.56;5014219;28;20140;-77
2023/12/06 06:56:34;;;;;;;57.75;32.40;;;;;;;3.47;75.39;99266.06;5031302;28;20441;-77
2023/12/06 06:59:01;;;;;;;57.63;31.92;;;;;;;3.47;75.79;99260.84;5031469;28;20054;-77
2023/12/06 07:01:28;;;;;;;61.92;34.05;;;;;;;3.48;76.05;99267.75;5031629;28;20484;-77
2023/12/06 07:03:55;;;;;;;56.70;31.27;;;;;;;3.49;75.58;99266.88;5031452;28;20425;-77
2023/12/06 07:06:23;;;;;;;55.05;30.10;;;;;;;3.49;75.92;99282.47;5031200;28;20426;-77
2023/12/06 07:08:49;;;;;;;66.88;31.52;;;;;;;3.50;76.17;99278.97;5031452;28;20053;-76
2023/12/06 07:11:16;;;;;;;55.00;30.00;;;;;;;3.50;75.75;99278.97;5031516;28;20073;-77
2023/12/06 07:13:43;;;;;;;57.47;31.05;;;;;;;3.51;75.78;99285.84;5013670;28;20115;-77
2023/12/06 07:16:12;;;;;;;62.95;30.92;;;;;;;3.51;75.56;99280.66;5031169;28;20654;-78
2023/12/06 07:18:39;;;;;;;58.75;30.85;;;;;;;3.52;75.73;99282.34;5031195;28;20068;-77
2023/12/06 07:21:07;;;;;;;53.22;29.88;;;;;;;3.52;75.85;99286.72;5031033;28;20119;-76
2023/12/06 07:23:34;;;;;;;48.17;27.90;;;;;;;3.52;76.07;99287.56;5031503;28;20056;-76
2023/12/06 07:26:01;;;;;;;57.95;29.00;;;;;;;3.54;76.07;99292.72;5031063;28;20057;-77
2023/12/06 07:28:28;;;;;;;50.95;27.70;;;;;;;3.55;75.90;99298.78;5031287;28;20489;-77
2023/12/06 07:30:59;;;;;;;43.70;26.05;;;;;;;3.56;75.85;99297.84;5031008;28;20506;-76
2023/12/06 07:33:26;;;;;;;43.75;25.75;;;;;;;3.56;76.17;99298.72;5030815;28;20421;-78
2023/12/06 07:35:54;;;;;;;42.95;26.00;;;;;;;3.58;76.09;99306.44;5027448;28;20076;-76
2023/12/06 07:38:21;;;;;;;45.42;26.23;;;;;;;3.58;75.90;99314.25;5030621;28;20065;-76
2023/12/06 07:40:48;;;;;;;41.08;22.73;;;;;;;3.58;76.16;99309.91;5030819;28;20057;-78
2023/12/06 07:43:15;;;;;;;39.63;22.98;;;;;;;3.60;75.97;99315.06;5013195;28;20395;-77
2023/12/06 07:45:42;;;;;;;38.30;23.05;;;;;;;3.61;76.02;99316.75;5025192;28;20049;-78
2023/12/06 07:48:08;;;;;;;40.40;22.48;;;;;;;3.60;76.04;99305.53;5011283;28;20061;-78
2023/12/06 07:50:35;;;;;;;39.40;22.63;;;;;;;3.62;76.29;99318.44;5011151;28;20085;-78
2023/12/06 07:53:01;;;;;;;38.38;22.92;;;;;;;3.61;76.21;99317.63;5011118;28;20081;-77
2023/12/06 07:55:28;;;;;;;35.38;21.90;;;;;;;3.62;76.05;99321.91;5019469;28;20124;-78
2023/12/06 07:57:55;;;;;;;37.58;21.35;;;;;;;3.64;76.35;99325.31;5030781;28;20045;-77
2023/12/06 08:00:22;;;;;;;35.70;21.65;;;;;;;3.65;76.13;99328.75;5030749;28;20123;-78
2023/12/06 08:02:49;;;;;;;34.97;22.20;;;;;;;3.66;76.34;99330.44;5030985;28;20477;-77
2023/12/06 08:05:19;;;;;;;37.22;21.85;;;;;;;3.67;76.19;99332.19;5024715;28;20096;-77
2023/12/06 08:07:46;;;;;;;32.55;19.60;;;;;;;3.69;76.10;99337.31;5034881;28;20058;-77
2023/12/06 08:10:19;;;;;;;31.55;19.98;;;;;;;3.69;76.39;99343.38;5017232;28;20085;-77
2023/12/06 08:12:46;;;;;;;24.60;15.82;;;;;;;3.71;76.15;99348.53;5034655;28;20050;-77
2023/12/06 08:15:13;;;;;;;34.28;20.95;;;;;;;3.71;76.17;99346.78;5020843;28;20057;-77
2023/12/06 08:17:41;;;;;;;32.80;20.77;;;;;;;3.73;76.38;99357.97;5014674;28;20127;-78
2023/12/06 08:20:08;;;;;;;32.08;20.63;;;;;;;3.73;76.45;99357.97;5014779;28;20116;-77
2023/12/06 08:22:35;;;;;;;34.88;19.63;;;;;;;3.75;76.12;99360.53;5014512;28;20513;-77
2023/12/06 08:25:01;;;;;;;34.22;20.92;;;;;;;3.76;76.50;99355.28;5022980;28;20107;-78
2023/12/06 08:27:29;;;;;;;30.38;19.25;;;;;;;3.75;76.51;99353.59;5034385;28;20221;-77
2023/12/06 08:29:57;;;;;;;31.90;20.30;;;;;;;3.77;76.55;99364.78;5034032;28;20609;-78
2023/12/06 08:32:25;;;;;;;28.63;19.42;;;;;;;3.80;76.20;99357.75;5034403;28;20417;-77
2023/12/06 08:34:51;;;;;;;30.02;19.27;;;;;;;3.80;76.33;99366.41;5028647;28;20077;-77
2023/12/06 08:37:18;;;;;;;30.48;20.27;;;;;;;3.82;76.46;99359.41;5014906;28;20097;-77
2023/12/06 08:42:28;;;;;;;32.60;20.35;;;;;;;3.87;76.72;99377.47;5047805;23;20048;-74
2023/12/06 08:44:55;;;;;;;31.73;18.88;;;;;;;3.89;76.74;99375.66;4995265;28;20050;-78
2023/12/06 08:47:23;;;;;;;28.33;18.60;;;;;;;3.90;76.66;99378.19;4995339;28;20058;-74
2023/12/06 08:49:50;;;;;;;33.65;20.25;;;;;;;3.94;77.06;99386.78;4995167;28;20428;-75
2023/12/06 08:52:16;;;;;;;30.77;19.67;;;;;;;3.97;76.82;99378.00;5004015;28;20061;-73
2023/12/06 08:54:43;;;;;;;28.23;18.58;;;;;;;4.01;77.03;99383.03;5013405;28;20050;-73
2023/12/06 08:57:11;;;;;;;30.85;19.63;;;;;;;4.04;76.71;99385.53;5014605;28;20130;-73
2023/12/06 08:59:38;;;;;;;29.60;19.52;;;;;;;4.07;76.88;99386.34;5013496;28;20054;-73
2023/12/06 09:02:04;;;;;;;29.08;19.27;;;;;;;4.10;76.51;99394.00;5010386;28;20046;-73
2023/12/06 09:04:31;;;;;;;33.85;20.52;;;;;;;4.13;76.71;99389.56;5010019;28;20486;-78
2023/12/06 09:06:58;;;;;;;31.42;18.98;;;;;;;4.15;76.25;99387.75;5012855;28;20050;-74
2023/12/06 09:09:25;;;;;;;28.38;17.95;;;;;;;4.18;76.31;99397.19;4994052;28;20061;-74
2023/12/06 09:11:51;;;;;;;29.25;18.95;;;;;;;4.20;76.21;99402.34;4994299;28;20081;-75
2023/12/06 09:14:18;;;;;;;30.60;19.23;;;;;;;4.21;76.19;99399.69;5009451;28;20116;-72
2023/12/06 09:16:45;;;;;;;28.60;18.27;;;;;;;4.22;76.13;99405.78;5012628;28;20143;-74
2023/12/06 09:19:11;;;;;;;28.38;17.95;;;;;;;4.23;76.41;99399.66;5013621;28;20518;-74
2023/12/06 09:21:40;;;;;;;28.83;19.10;;;;;;;4.23;76.18;99405.69;5013653;28;20050;-73
2023/12/06 09:24:10;;;;;;;28.83;18.65;;;;;;;4.26;76.23;99402.16;4998624;28;20054;-76
2023/12/06 09:26:37;;;;;;;29.13;18.58;;;;;;;4.26;76.15;99408.19;4993869;28;20050;-77
2023/12/06 09:29:08;;;;;;;29.38;18.70;;;;;;;4.27;76.12;99396.84;4993929;28;20046;-75
2023/12/06 09:31:36;;;;;;;28.48;19.02;;;;;;;4.29;75.94;99407.22;4993916;28;20065;-73
2023/12/06 09:34:04;;;;;;;27.65;19.05;;;;;;;4.29;76.06;99408.09;5001854;28;20132;-77
2023/12/06 09:36:31;;;;;;;32.35;19.50;;;;;;;4.30;75.84;99404.56;4993524;28;20061;-72
2023/12/06 09:38:58;;;;;;;28.35;19.33;;;;;;;4.31;76.11;99410.63;4997368;28;20058;-76
2023/12/06 09:41:30;;;;;;;30.05;19.88;;;;;;;4.30;75.57;99408.94;4997642;28;20057;-74
2023/12/06 09:43:58;;;;;;;32.83;20.15;;;;;;;4.33;76.28;99413.19;5010081;28;20064;-73
2023/12/06 09:46:25;;;;;;;33.85;20.85;;;;;;;4.34;76.39;99412.28;5013028;28;20054;-71
2023/12/06 09:48:54;;;;;;;32.45;20.30;;;;;;;4.37;76.41;99420.00;5011795;28;20049;-72
2023/12/06 09:51:22;;;;;;;36.78;21.90;;;;;;;4.38;76.11;99416.47;5013297;28;20053;-72
2023/12/06 09:53:49;;;;;;;45.25;23.33;;;;;;;4.41;75.87;99413.75;5003921;28;20042;-76
2023/12/06 09:56:16;;;;;;;36.97;21.98;;;;;;;4.39;75.77;99419.03;5012998;28;20392;-72
2023/12/06 09:58:43;;;;;;;51.80;23.48;;;;;;;4.41;76.01;99427.63;5013037;28;20061;-77
2023/12/06 10:01:11;;;;;;;51.70;22.95;;;;;;;4.43;75.80;99436.25;5012837;28;20145;-74
2023/12/06 10:03:38;;;;;;;63.63;25.35;;;;;;;4.45;75.91;99432.72;4999270;28;20050;-76
2023/12/06 10:06:05;;;;;;;55.97;24.27;;;;;;;4.44;75.81;99431.88;4998856;28;20600;-72
2023/12/06 10:08:36;;;;;;;50.65;25.30;;;;;;;4.44;75.88;99431.88;5013320;28;20376;-78
2023/12/06 10:11:09;;;;;;;47.17;24.90;;;;;;;4.45;75.31;99444.00;5011505;28;20053;-76
2023/12/06 10:13:37;;;;;;;126.88;28.73;;;;;;;4.46;75.43;99443.09;5003967;28;20137;-72
2023/12/06 10:16:19;;;;;;;98.57;27.88;;;;;;;4.42;74.64;99444.13;5007998;28;20050;-77
2023/12/06 10:18:48;;;;;;;57.00;24.70;;;;;;;4.42;75.52;99439.75;4992148;28;20129;-76
2023/12/06 10:21:17;;;;;;;61.00;25.17;;;;;;;4.41;75.54;99438.03;4992900;28;20479;-76
2023/12/06 10:23:57;;;;;;;57.72;23.83;;;;;;;4.39;74.95;99439.00;4993062;28;20074;-73
2023/12/06 10:26:29;;;;;;;74.00;24.63;;;;;;;4.40;75.48;99438.09;4995621;28;20048;-79
2023/12/06 10:28:58;;;;;;;60.15;22.92;;;;;;;4.41;75.74;99439.81;4995034;28;20089;-74
2023/12/06 10:31:25;;;;;;;71.43;27.30;;;;;;;4.39;75.69;99439.88;4993036;28;20042;-78
2023/12/06 10:33:57;;;;;;;70.70;25.70;;;;;;;4.38;75.37;99448.56;4992759;28;20050;-73
2023/12/06 10:36:26;;;;;;;63.67;23.63;;;;;;;4.37;75.59;99443.44;4992479;28;20050;-73
2023/12/06 10:38:54;;;;;;;47.40;24.00;;;;;;;4.36;75.65;99444.31;5007686;28;20053;-73
2023/12/06 10:41:25;;;;;;;64.68;25.40;;;;;;;4.36;75.64;99439.13;5012184;28;20050;-77
2023/12/06 10:43:57;;;;;;;69.72;25.45;;;;;;;4.34;75.44;99444.38;5012231;28;20062;-75
2023/12/06 10:46:24;;;;;;;68.43;23.65;;;;;;;4.37;76.04;99441.66;5012093;28;20046;-75
2023/12/06 10:48:53;;;;;;;38.78;24.33;;;;;;;4.37;75.88;99440.84;5009393;28;20106;-77
2023/12/06 10:51:20;;;;;;;49.85;22.35;;;;;;;4.36;76.32;99433.91;5010894;28;20487;-74
2023/12/06 10:53:48;;;;;;;36.08;22.00;;;;;;;4.37;76.33;99440.84;5012023;28;20054;-73
2023/12/06 10:56:17;;;;;;;32.95;21.60;;;;;;;4.38;76.42;99440.75;5011942;28;20050;-73
2023/12/06 10:58:45;;;;;;;35.55;21.55;;;;;;;4.41;76.53;99442.44;5003468;28;20062;-74
2023/12/06 11:01:13;;;;;;;68.75;22.83;;;;;;;4.42;76.20;99442.34;5011855;28;20081;-76
2023/12/06 11:03:40;;;;;;;42.42;24.27;;;;;;;4.44;76.29;99447.50;5011813;28;20057;-73
2023/12/06 11:06:17;;;;;;;60.50;24.67;;;;;;;4.43;75.33;99443.22;5010339;28;20092;-74
2023/12/06 11:09:01;;;;;;;37.45;23.05;;;;;;;4.46;75.46;99444.84;5007511;28;20455;-74
2023/12/06 11:11:38;;;;;;;36.95;22.45;;;;;;;4.48;76.29;99446.50;5006173;28;20752;-71
2023/12/06 11:14:23;;;;;;;38.72;23.63;;;;;;;4.47;75.27;99444.78;5002109;28;20077;-74
2023/12/06 11:17:23;;;;;;;39.15;24.10;;;;;;;4.48;75.37;99441.28;5002559;28;20053;-73
2023/12/06 11:19:50;;;;;;;35.13;21.95;;;;;;;4.52;76.26;99450.69;5011567;28;20053;-73
2023/12/06 11:22:17;;;;;;;47.42;24.13;;;;;;;4.53;76.41;99446.34;5010958;28;20046;-72
2023/12/06 11:24:44;;;;;;;37.58;25.80;;;;;;;4.53;76.56;99446.34;5002532;28;20487;-77
2023/12/06 11:27:11;;;;;;;37.50;24.77;;;;;;;4.54;76.58;99456.72;5011370;28;20630;-73
2023/12/06 11:29:39;;;;;;;35.58;24.50;;;;;;;4.55;76.48;99454.94;5011159;28;20481;-74